createdAt,value
2018-11-01T00:00:17.461Z,2.4
2018-11-01T00:05:17.659Z,2.6
2018-11-01T00:10:17.820Z,1.6
2018-11-01T00:15:17.687Z,2.3
2018-11-01T00:20:17.938Z,2.7
2018-11-01T00:25:16.990Z,2.1
2018-11-01T00:30:17.034Z,1.6
2018-11-01T00:35:16.951Z,1.2
2018-11-01T00:40:17.220Z,1.7
2018-11-01T00:45:17.512Z,1.2
2018-11-01T00:50:17.357Z,0.9
2018-11-01T00:55:17.353Z,2
2018-11-01T01:00:17.412Z,1.4
2018-11-01T01:05:17.473Z,2.3
2018-11-01T01:10:22.838Z,1.4
2018-11-01T01:15:17.622Z,2.6
2018-11-01T01:20:17.838Z,2.2
2018-11-01T01:25:17.716Z,1.4
2018-11-01T01:30:17.962Z,0.6
2018-11-01T01:35:16.889Z,1.2
2018-11-01T01:40:17.160Z,2
2018-11-01T01:45:17.034Z,0.9
2018-11-01T01:50:17.319Z,2.5
2018-11-01T01:55:17.538Z,4.1
2018-11-01T02:00:17.553Z,3.7
2018-11-01T02:05:17.446Z,1.7
2018-11-01T02:10:17.549Z,1.8
2018-11-01T02:15:17.462Z,2.4
2018-11-01T02:20:17.696Z,1.1
2018-11-01T02:25:17.689Z,1.4
2018-11-01T02:30:17.827Z,2.6
2018-11-01T02:35:17.813Z,6.3
2018-11-01T02:40:17.218Z,2.7
2018-11-01T02:45:17.265Z,2.7
2018-11-01T02:50:17.356Z,1
2018-11-01T02:55:17.380Z,2.7
2018-11-01T03:00:17.554Z,1.2
2018-11-01T03:05:17.448Z,1.2
2018-11-01T03:10:17.563Z,2.5
2018-11-01T03:15:17.463Z,0.8
2018-11-01T03:20:17.637Z,2.5
2018-11-01T03:25:17.465Z,1.7
2018-11-01T03:30:17.263Z,3.9
2018-11-01T03:35:17.468Z,2.2
2018-11-01T03:40:17.599Z,0.9
2018-11-01T03:45:17.409Z,2.5
2018-11-01T03:50:17.306Z,3.1
2018-11-01T03:55:17.298Z,1.8
2018-11-01T04:00:17.470Z,2.6
2018-11-01T04:05:17.322Z,1.3
2018-11-01T04:10:17.476Z,3
2018-11-01T04:15:17.630Z,2.8
2018-11-01T04:20:17.933Z,2
2018-11-01T04:25:16.910Z,1.1
2018-11-01T04:30:16.722Z,1.6
2018-11-01T04:35:18.133Z,1.4
2018-11-01T04:40:17.458Z,3.1
2018-11-01T04:45:17.474Z,1.4
2018-11-01T04:50:17.382Z,0.9
2018-11-01T04:55:17.330Z,2.3
2018-11-01T05:00:17.226Z,1.7
2018-11-01T05:05:17.126Z,4
2018-11-01T05:10:17.550Z,2.5
2018-11-01T05:15:17.825Z,1.3
2018-11-01T05:20:17.064Z,2.7
2018-11-01T05:25:16.927Z,2.7
2018-11-01T05:30:16.714Z,4.4
2018-11-01T05:35:17.816Z,3.8
2018-11-01T05:40:16.810Z,2.7
2018-11-01T05:45:17.874Z,1.9
2018-11-01T05:50:17.670Z,3.7
2018-11-01T05:55:17.441Z,3.5
2018-11-01T06:00:17.258Z,3.1
2018-11-01T06:05:17.154Z,5.1
2018-11-01T06:10:17.251Z,3.4
2018-11-01T06:15:17.402Z,3.7
2018-11-01T06:20:17.441Z,3.6
2018-11-01T06:25:17.658Z,3.7
2018-11-01T06:30:17.806Z,3.4
2018-11-01T06:35:17.905Z,3
2018-11-01T06:40:17.167Z,2.3
2018-11-01T06:45:17.085Z,3.6
2018-11-01T06:50:17.274Z,3.9
2018-11-01T06:55:17.717Z,2.3
2018-11-01T07:00:17.611Z,3.7
2018-11-01T07:05:17.552Z,3.8
2018-11-01T07:10:17.606Z,4.1
2018-11-01T07:15:18.111Z,3.7
2018-11-01T07:20:17.109Z,3.6
2018-11-01T07:25:17.124Z,3.8
2018-11-01T07:30:16.919Z,3.7
2018-11-01T07:35:16.842Z,3.6
2018-11-01T07:40:17.049Z,4.2
2018-11-01T07:45:17.119Z,3.7
2018-11-01T07:50:17.281Z,4
2018-11-01T07:55:17.097Z,4
2018-11-01T08:00:16.941Z,3.8
2018-11-01T08:05:17.082Z,4
2018-11-01T08:10:17.333Z,1.9
2018-11-01T08:15:17.301Z,3.2
2018-11-01T08:20:18.275Z,3.8
2018-11-01T08:25:17.414Z,4.3
2018-11-01T08:30:17.505Z,4.5
2018-11-01T08:35:17.575Z,3.5
2018-11-01T08:40:17.862Z,2.8
2018-11-01T08:45:17.898Z,3.6
2018-11-01T08:50:18.034Z,4.1
2018-11-01T08:55:17.198Z,4.5
2018-11-01T09:00:17.493Z,4.3
2018-11-01T09:05:17.692Z,4.6
2018-11-01T09:10:16.826Z,4.6
2018-11-01T09:15:17.901Z,4.3
2018-11-01T09:20:16.978Z,4.5
2018-11-01T09:25:16.862Z,4.5
2018-11-01T09:30:17.978Z,3
2018-11-01T09:35:16.934Z,4.7
2018-11-01T09:40:17.217Z,4.5
2018-11-01T09:45:17.279Z,3
2018-11-01T09:50:17.422Z,5
2018-11-01T09:55:17.582Z,2.1
2018-11-01T10:00:17.670Z,5.3
2018-11-01T10:05:17.737Z,4
2018-11-01T10:10:16.762Z,6.4
2018-11-01T10:15:18.042Z,6.4
2018-11-01T10:20:17.422Z,5.8
2018-11-01T10:25:17.597Z,6
2018-11-01T10:30:17.755Z,4.7
2018-11-01T10:35:17.778Z,5.6
2018-11-01T10:40:17.090Z,5.6
2018-11-01T10:45:17.031Z,5.7
2018-11-01T10:50:16.954Z,5.5
2018-11-01T10:55:18.058Z,5.5
2018-11-01T11:00:17.682Z,5.1
2018-11-01T11:05:17.713Z,4.8
2018-11-01T11:10:16.999Z,5.3
2018-11-01T11:15:16.903Z,5.6
2018-11-01T11:20:17.745Z,5.5
2018-11-01T11:25:18.019Z,5.5
2018-11-01T11:30:17.408Z,5
2018-11-01T11:35:17.602Z,5.3
2018-11-01T11:40:18.166Z,5.5
2018-11-01T11:45:17.385Z,5.1
2018-11-01T11:50:17.246Z,5.2
2018-11-01T11:55:17.290Z,5.3
2018-11-01T12:00:17.454Z,5.1
2018-11-01T12:05:17.640Z,5.9
2018-11-01T12:10:17.934Z,5.1
2018-11-01T12:15:16.967Z,4.3
2018-11-01T12:20:17.363Z,5.6
2018-11-01T12:25:17.281Z,4.7
2018-11-01T12:30:17.148Z,5.3
2018-11-01T12:35:17.123Z,5
2018-11-01T12:40:17.247Z,5.3
2018-11-01T12:45:17.434Z,5.1
2018-11-01T12:50:17.719Z,5.4
2018-11-01T12:55:17.754Z,4.5
2018-11-01T13:00:17.754Z,5
2018-11-01T13:05:17.726Z,2.6
2018-11-01T13:10:17.002Z,5.1
2018-11-01T13:15:16.926Z,5.5
2018-11-01T13:20:17.195Z,5.3
2018-11-01T13:25:17.278Z,5
2018-11-01T13:30:17.442Z,5.1
2018-11-01T13:35:17.674Z,5.7
2018-11-01T13:40:18.122Z,5.6
2018-11-01T13:45:17.309Z,5.8
2018-11-01T13:50:17.355Z,2.7
2018-11-01T13:55:17.449Z,6.4
2018-11-01T14:00:17.327Z,5.8
2018-11-01T14:05:17.239Z,5.1
2018-11-01T14:10:17.322Z,6
2018-11-01T14:15:18.460Z,4.5
2018-11-01T14:20:16.877Z,5.8
2018-11-01T14:25:18.024Z,5.9
2018-11-01T14:30:17.194Z,5.2
2018-11-01T14:35:17.234Z,4.5
2018-11-01T14:40:17.347Z,5.8
2018-11-01T14:45:17.478Z,5.9
2018-11-01T14:50:17.401Z,3.5
2018-11-01T14:55:19.845Z,6.1
2018-11-01T15:00:17.064Z,3.8
2018-11-01T15:05:16.951Z,6.4
2018-11-01T15:10:17.076Z,6
2018-11-01T15:15:17.162Z,4.5
2018-11-01T15:20:17.602Z,5.7
2018-11-01T15:25:17.672Z,6.5
2018-11-01T15:30:17.865Z,5.8
2018-11-01T15:35:16.952Z,6.2
2018-11-01T15:40:17.150Z,5.1
2018-11-01T15:45:17.452Z,6.2
2018-11-01T15:50:17.524Z,6
2018-11-01T15:55:17.390Z,6.6
2018-11-01T16:00:17.601Z,6.3
2018-11-01T16:05:17.698Z,6.3
2018-11-01T16:10:17.300Z,6.5
2018-11-01T16:15:17.710Z,6.8
2018-11-01T16:20:17.555Z,6.1
2018-11-01T16:25:17.583Z,6.7
2018-11-01T16:30:17.786Z,7
2018-11-01T16:35:17.617Z,6.9
2018-11-01T16:40:17.938Z,6.8
2018-11-01T16:45:17.325Z,4.7
2018-11-01T16:50:17.466Z,7.2
2018-11-01T16:55:17.551Z,7.1
2018-11-01T17:00:18.203Z,6.9
2018-11-01T17:05:17.342Z,4.7
2018-11-01T17:10:17.654Z,7.3
2018-11-01T17:15:18.279Z,5.6
2018-11-01T17:20:17.693Z,6.7
2018-11-01T17:25:17.754Z,5.5
2018-11-01T17:30:17.675Z,6.8
2018-11-01T17:35:17.583Z,8.6
2018-11-01T17:40:17.890Z,6.1
2018-11-01T17:45:17.894Z,6.3
2018-11-01T17:50:17.046Z,7
2018-11-01T17:55:17.058Z,6.3
2018-11-01T18:00:17.338Z,7.4
2018-11-01T18:05:17.641Z,7
2018-11-01T18:10:18.020Z,8.3
2018-11-01T18:15:16.855Z,8.9
2018-11-01T18:20:17.185Z,8.1
2018-11-01T18:25:17.373Z,8.6
2018-11-01T18:30:17.470Z,9.6
2018-11-01T18:35:17.505Z,9
2018-11-01T18:40:17.742Z,9
2018-11-01T18:45:17.677Z,5.6
2018-11-01T18:50:18.066Z,9.2
2018-11-01T18:55:16.986Z,9.7
2018-11-01T19:00:17.274Z,9.6
2018-11-01T19:05:17.246Z,9.9
2018-11-01T19:10:17.598Z,6.6
2018-11-01T19:15:17.815Z,9.9
2018-11-01T19:20:17.222Z,8.7
2018-11-01T19:25:17.256Z,9.7
2018-11-01T19:30:17.135Z,7.7
2018-11-01T19:35:17.205Z,9.5
2018-11-01T19:40:17.758Z,9.5
2018-11-01T19:45:17.849Z,9.5
2018-11-01T19:50:17.964Z,9.9
2018-11-01T19:55:17.461Z,9.4
2018-11-01T20:00:17.829Z,9.4
2018-11-01T20:05:17.967Z,9.3
2018-11-01T20:10:17.636Z,9.7
2018-11-01T20:15:17.564Z,9.6
2018-11-01T20:20:17.634Z,7.4
2018-11-01T20:25:17.862Z,10.1
2018-11-01T20:30:17.810Z,9.6
2018-11-01T20:35:17.978Z,9.4
2018-11-01T20:40:17.210Z,9.4
2018-11-01T20:45:17.123Z,8.9
2018-11-01T20:50:17.633Z,9.1
2018-11-01T20:55:17.805Z,8.9
2018-11-01T21:00:17.870Z,6.1
2018-11-01T21:05:17.951Z,9
2018-11-01T21:10:17.351Z,8.7
2018-11-01T21:15:17.565Z,8.9
2018-11-01T21:20:17.658Z,9.4
2018-11-01T21:25:17.550Z,8.9
2018-11-01T21:30:17.914Z,8.6
2018-11-01T21:35:17.371Z,8.2
2018-11-01T21:40:17.606Z,8.6
2018-11-01T21:45:17.630Z,8.3
2018-11-01T21:50:17.542Z,8.1
2018-11-01T21:55:17.463Z,8
2018-11-01T22:00:17.412Z,8.3
2018-11-01T22:05:17.584Z,8.4
2018-11-01T22:10:17.885Z,7.1
2018-11-01T22:15:18.030Z,8.1
2018-11-01T22:20:17.450Z,8.4
2018-11-01T22:25:17.831Z,9
2018-11-01T22:30:18.004Z,9.1
2018-11-01T22:35:17.318Z,9.1
2018-11-01T22:40:17.586Z,8.9
2018-11-01T22:45:17.591Z,9.3
2018-11-01T22:50:17.472Z,9.2
2018-11-01T22:55:17.690Z,9.9
2018-11-01T23:00:17.874Z,10
2018-11-01T23:05:17.797Z,11.6
2018-11-01T23:10:17.016Z,11.2
2018-11-01T23:15:16.946Z,10.7
2018-11-01T23:20:17.152Z,12.1
2018-11-01T23:25:17.554Z,11.3
2018-11-01T23:30:17.489Z,11.8
2018-11-01T23:35:17.453Z,12.9
2018-11-01T23:40:17.797Z,12.7
2018-11-01T23:45:17.932Z,13.3
2018-11-01T23:50:17.050Z,13.8
2018-11-01T23:55:17.003Z,13.8
